sensor_id;sensor_type;location;lat;lon;timestamp;pressure;altitude;pressure_sealevel;temperature;humidity
44872;BME280;30602;51.060;17.226;2024-03-07T00:00:19;102338.78;;;3.40;100.00
44872;BME280;30602;51.060;17.226;2024-03-07T00:04:12;102342.30;;;3.36;100.00
44872;BME280;30602;51.060;17.226;2024-03-07T00:07:51;102342.27;;;3.46;100.00
44872;BME280;30602;51.060;17.226;2024-03-07T00:11:15;102341.39;;;3.54;100.00
44872;BME280;30602;51.060;17.226;2024-03-07T00:14:58;102343.30;;;3.46;100.00
44872;BME280;30602;51.060;17.226;2024-03-07T00:18:36;102334.57;;;3.30;100.00
44872;BME280;30602;51.060;17.226;2024-03-07T00:22:51;102337.48;;;3.26;100.00
44872;BME280;30602;51.060;17.226;2024-03-07T00:26:41;102347.61;;;3.33;100.00
44872;BME280;30602;51.060;17.226;2024-03-07T00:30:25;102347.20;;;3.33;100.00
44872;BME280;30602;51.060;17.226;2024-03-07T00:34:26;102341.24;;;3.26;100.00
44872;BME280;30602;51.060;17.226;2024-03-07T00:41:54;102342.19;;;3.32;100.00
44872;BME280;30602;51.060;17.226;2024-03-07T00:45:16;102337.93;;;3.38;100.00
44872;BME280;30602;51.060;17.226;2024-03-07T00:48:40;102339.07;;;3.42;100.00
44872;BME280;30602;51.060;17.226;2024-03-07T00:52:20;102337.05;;;3.39;100.00
44872;BME280;30602;51.060;17.226;2024-03-07T00:55:41;102324.96;;;3.32;100.00
44872;BME280;30602;51.060;17.226;2024-03-07T00:59:23;102328.38;;;3.36;100.00
44872;BME280;30602;51.060;17.226;2024-03-07T01:03:26;102328.19;;;3.29;100.00
44872;BME280;30602;51.060;17.226;2024-03-07T01:06:46;102328.30;;;3.23;100.00
44872;BME280;30602;51.060;17.226;2024-03-07T01:10:31;102329.59;;;3.19;100.00
44872;BME280;30602;51.060;17.226;2024-03-07T01:14:27;102329.35;;;3.13;100.00
44872;BME280;30602;51.060;17.226;2024-03-07T01:18:04;102329.14;;;3.14;100.00
44872;BME280;30602;51.060;17.226;2024-03-07T01:21:28;102329.18;;;3.12;100.00
44872;BME280;30602;51.060;17.226;2024-03-07T01:25:16;102326.77;;;3.17;100.00
44872;BME280;30602;51.060;17.226;2024-03-07T01:29:00;102329.53;;;3.08;100.00
44872;BME280;30602;51.060;17.226;2024-03-07T01:33:33;102322.70;;;2.94;100.00
44872;BME280;30602;51.060;17.226;2024-03-07T01:36:57;102328.99;;;2.93;100.00
44872;BME280;30602;51.060;17.226;2024-03-07T01:40:57;102323.93;;;2.80;100.00
44872;BME280;30602;51.060;17.226;2024-03-07T01:44:48;102331.13;;;2.86;100.00
44872;BME280;30602;51.060;17.226;2024-03-07T01:48:33;102337.05;;;2.83;100.00
44872;BME280;30602;51.060;17.226;2024-03-07T01:52:29;102334.82;;;2.77;100.00
44872;BME280;30602;51.060;17.226;2024-03-07T01:56:13;102332.92;;;2.77;100.00
44872;BME280;30602;51.060;17.226;2024-03-07T01:59:33;102334.85;;;2.81;100.00
44872;BME280;30602;51.060;17.226;2024-03-07T02:07:07;102336.90;;;2.80;100.00
44872;BME280;30602;51.060;17.226;2024-03-07T02:11:39;102336.84;;;2.77;100.00
44872;BME280;30602;51.060;17.226;2024-03-07T02:15:46;102319.28;;;2.60;100.00
44872;BME280;30602;51.060;17.226;2024-03-07T02:19:48;102333.41;;;2.65;100.00
44872;BME280;30602;51.060;17.226;2024-03-07T02:23:33;102329.41;;;2.58;100.00
44872;BME280;30602;51.060;17.226;2024-03-07T02:27:29;102321.13;;;2.47;100.00
44872;BME280;30602;51.060;17.226;2024-03-07T02:31:14;102333.30;;;2.49;100.00
44872;BME280;30602;51.060;17.226;2024-03-07T02:34:56;102333.21;;;2.44;100.00
44872;BME280;30602;51.060;17.226;2024-03-07T02:38:41;102337.05;;;2.38;100.00
44872;BME280;30602;51.060;17.226;2024-03-07T02:42:30;102334.47;;;2.47;100.00
44872;BME280;30602;51.060;17.226;2024-03-07T02:45:52;102342.02;;;2.37;100.00
44872;BME280;30602;51.060;17.226;2024-03-07T02:49:34;102343.30;;;2.29;100.00
44872;BME280;30602;51.060;17.226;2024-03-07T02:53:27;102345.40;;;2.17;100.00
44872;BME280;30602;51.060;17.226;2024-03-07T02:56:50;102344.07;;;2.07;100.00
44872;BME280;30602;51.060;17.226;2024-03-07T03:00:27;102344.31;;;2.02;100.00
44872;BME280;30602;51.060;17.226;2024-03-07T03:03:49;102328.12;;;1.84;100.00
44872;BME280;30602;51.060;17.226;2024-03-07T03:07:28;102341.62;;;1.84;100.00
44872;BME280;30602;51.060;17.226;2024-03-07T03:10:54;102344.84;;;1.78;100.00
44872;BME280;30602;51.060;17.226;2024-03-07T03:14:16;102344.64;;;1.70;100.00
44872;BME280;30602;51.060;17.226;2024-03-07T03:17:58;102346.02;;;1.59;100.00
44872;BME280;30602;51.060;17.226;2024-03-07T03:21:24;102348.32;;;1.62;100.00
44872;BME280;30602;51.060;17.226;2024-03-07T03:25:22;102352.84;;;1.69;100.00
44872;BME280;30602;51.060;17.226;2024-03-07T03:29:08;102355.07;;;1.79;100.00
44872;BME280;30602;51.060;17.226;2024-03-07T03:36:47;102360.80;;;1.87;100.00
44872;BME280;30602;51.060;17.226;2024-03-07T03:40:42;102351.52;;;1.91;100.00
44872;BME280;30602;51.060;17.226;2024-03-07T03:44:19;102351.54;;;1.97;100.00
44872;BME280;30602;51.060;17.226;2024-03-07T03:48:58;102355.23;;;1.93;100.00
44872;BME280;30602;51.060;17.226;2024-03-07T03:52:53;102328.04;;;1.72;100.00
44872;BME280;30602;51.060;17.226;2024-03-07T03:56:52;102353.07;;;1.91;100.00
44872;BME280;30602;51.060;17.226;2024-03-07T04:00:12;102358.53;;;1.93;100.00
44872;BME280;30602;51.060;17.226;2024-03-07T04:03:33;102353.68;;;1.92;100.00
44872;BME280;30602;51.060;17.226;2024-03-07T04:07:22;102355.07;;;2.04;100.00
44872;BME280;30602;51.060;17.226;2024-03-07T04:11:31;102356.56;;;2.23;100.00
44872;BME280;30602;51.060;17.226;2024-03-07T04:14:58;102349.42;;;2.28;100.00
44872;BME280;30602;51.060;17.226;2024-03-07T04:19:26;102357.09;;;2.35;100.00
44872;BME280;30602;51.060;17.226;2024-03-07T04:26:49;102360.65;;;2.37;100.00
44872;BME280;30602;51.060;17.226;2024-03-07T04:30:20;102358.99;;;2.37;100.00
44872;BME280;30602;51.060;17.226;2024-03-07T04:33:41;102361.23;;;2.36;100.00
44872;BME280;30602;51.060;17.226;2024-03-07T04:46:16;102364.99;;;2.36;100.00
44872;BME280;30602;51.060;17.226;2024-03-07T04:50:14;102367.20;;;2.35;100.00
44872;BME280;30602;51.060;17.226;2024-03-07T04:54:44;102367.09;;;2.44;100.00
44872;BME280;30602;51.060;17.226;2024-03-07T04:58:47;102372.58;;;2.45;100.00
44872;BME280;30602;51.060;17.226;2024-03-07T05:02:44;102374.75;;;2.43;100.00
44872;BME280;30602;51.060;17.226;2024-03-07T05:06:41;102378.38;;;2.43;100.00
44872;BME280;30602;51.060;17.226;2024-03-07T05:11:02;102383.33;;;2.37;100.00
44872;BME280;30602;51.060;17.226;2024-03-07T05:15:29;102387.48;;;2.34;100.00
44872;BME280;30602;51.060;17.226;2024-03-07T05:19:11;102386.84;;;2.34;100.00
44872;BME280;30602;51.060;17.226;2024-03-07T05:23:36;102390.48;;;2.30;100.00
44872;BME280;30602;51.060;17.226;2024-03-07T05:27:27;102389.02;;;2.27;100.00
44872;BME280;30602;51.060;17.226;2024-03-07T05:31:12;102391.29;;;2.28;100.00
44872;BME280;30602;51.060;17.226;2024-03-07T05:36:13;102394.39;;;2.26;100.00
44872;BME280;30602;51.060;17.226;2024-03-07T05:39:54;102404.67;;;2.36;100.00
44872;BME280;30602;51.060;17.226;2024-03-07T05:43:37;102401.80;;;2.37;100.00
44872;BME280;30602;51.060;17.226;2024-03-07T05:47:19;102406.57;;;2.31;100.00
44872;BME280;30602;51.060;17.226;2024-03-07T05:51:56;102412.54;;;2.27;100.00
44872;BME280;30602;51.060;17.226;2024-03-07T05:55:59;102411.73;;;2.27;100.00
44872;BME280;30602;51.060;17.226;2024-03-07T05:59:47;102416.84;;;2.23;100.00
44872;BME280;30602;51.060;17.226;2024-03-07T06:03:48;102415.97;;;2.23;99.72
44872;BME280;30602;51.060;17.226;2024-03-07T06:07:57;102421.90;;;2.23;99.58
44872;BME280;30602;51.060;17.226;2024-03-07T06:11:53;102425.20;;;2.21;98.94
44872;BME280;30602;51.060;17.226;2024-03-07T06:15:52;102410.76;;;2.11;98.08
44872;BME280;30602;51.060;17.226;2024-03-07T06:19:20;102432.66;;;2.24;97.64
44872;BME280;30602;51.060;17.226;2024-03-07T06:23:01;102436.24;;;2.28;96.82
44872;BME280;30602;51.060;17.226;2024-03-07T06:26:46;102440.27;;;2.27;94.74
44872;BME280;30602;51.060;17.226;2024-03-07T06:30:28;102446.02;;;2.36;94.28
44872;BME280;30602;51.060;17.226;2024-03-07T06:34:17;102443.43;;;2.45;92.90
44872;BME280;30602;51.060;17.226;2024-03-07T06:37:59;102451.09;;;2.46;91.33
44872;BME280;30602;51.060;17.226;2024-03-07T06:42:36;102451.91;;;2.42;89.78
44872;BME280;30602;51.060;17.226;2024-03-07T06:46:36;102459.25;;;2.49;89.91
44872;BME280;30602;51.060;17.226;2024-03-07T06:54:20;102465.19;;;2.55;90.12
44872;BME280;30602;51.060;17.226;2024-03-07T06:57:59;102467.17;;;2.59;89.75
44872;BME280;30602;51.060;17.226;2024-03-07T07:01:45;102464.86;;;2.57;89.37
44872;BME280;30602;51.060;17.226;2024-03-07T07:05:10;102455.88;;;2.50;89.24
44872;BME280;30602;51.060;17.226;2024-03-07T07:08:34;102468.08;;;2.58;89.79
44872;BME280;30602;51.060;17.226;2024-03-07T07:12:49;102471.68;;;2.58;89.15
44872;BME280;30602;51.060;17.226;2024-03-07T07:17:00;102461.35;;;2.66;89.62
44872;BME280;30602;51.060;17.226;2024-03-07T07:20:56;102464.23;;;2.69;88.30
44872;BME280;30602;51.060;17.226;2024-03-07T07:24:15;102459.50;;;2.85;88.80
44872;BME280;30602;51.060;17.226;2024-03-07T07:28:04;102464.70;;;2.78;87.71
44872;BME280;30602;51.060;17.226;2024-03-07T07:32:16;102462.38;;;2.77;87.10
44872;BME280;30602;51.060;17.226;2024-03-07T07:35:35;102462.62;;;2.84;87.00
44872;BME280;30602;51.060;17.226;2024-03-07T07:39:16;102463.35;;;2.83;87.10
44872;BME280;30602;51.060;17.226;2024-03-07T07:43:13;102463.30;;;2.87;87.20
44872;BME280;30602;51.060;17.226;2024-03-07T07:47:10;102466.23;;;2.84;86.16
44872;BME280;30602;51.060;17.226;2024-03-07T07:51:38;102462.80;;;2.83;85.54
44872;BME280;30602;51.060;17.226;2024-03-07T07:55:04;102467.45;;;2.89;86.36
44872;BME280;30602;51.060;17.226;2024-03-07T07:58:30;102465.47;;;2.92;85.69
44872;BME280;30602;51.060;17.226;2024-03-07T08:02:32;102465.14;;;2.98;85.54
44872;BME280;30602;51.060;17.226;2024-03-07T08:11:34;102464.77;;;3.18;83.65
44872;BME280;30602;51.060;17.226;2024-03-07T08:17:04;102464.30;;;3.15;80.93
44872;BME280;30602;51.060;17.226;2024-03-07T08:20:34;102463.63;;;3.17;80.96
44872;BME280;30602;51.060;17.226;2024-03-07T08:24:17;102464.49;;;3.22;80.63
44872;BME280;30602;51.060;17.226;2024-03-07T08:27:51;102466.15;;;3.18;79.82
44872;BME280;30602;51.060;17.226;2024-03-07T08:31:48;102465.72;;;3.09;79.34
44872;BME280;30602;51.060;17.226;2024-03-07T08:35:17;102465.55;;;3.11;79.32
44872;BME280;30602;51.060;17.226;2024-03-07T08:38:57;102452.32;;;3.05;78.80
44872;BME280;30602;51.060;17.226;2024-03-07T08:42:53;102466.54;;;3.15;78.53
44872;BME280;30602;51.060;17.226;2024-03-07T08:46:54;102459.05;;;3.09;77.95
44872;BME280;30602;51.060;17.226;2024-03-07T08:50:14;102469.05;;;3.13;78.17
44872;BME280;30602;51.060;17.226;2024-03-07T08:53:45;102463.37;;;3.12;78.98
44872;BME280;30602;51.060;17.226;2024-03-07T08:57:05;102468.88;;;3.22;79.44
44872;BME280;30602;51.060;17.226;2024-03-07T09:00:48;102468.60;;;3.20;79.29
44872;BME280;30602;51.060;17.226;2024-03-07T09:04:33;102468.70;;;3.13;77.38
44872;BME280;30602;51.060;17.226;2024-03-07T09:09:09;102467.65;;;3.12;77.58
44872;BME280;30602;51.060;17.226;2024-03-07T09:13:15;102468.68;;;3.21;76.58
44872;BME280;30602;51.060;17.226;2024-03-07T09:17:05;102464.06;;;3.17;76.34
44872;BME280;30602;51.060;17.226;2024-03-07T09:21:35;102465.56;;;3.24;76.44
44872;BME280;30602;51.060;17.226;2024-03-07T09:25:06;102453.04;;;3.28;76.52
44872;BME280;30602;51.060;17.226;2024-03-07T09:28:38;102465.98;;;3.46;78.26
44872;BME280;30602;51.060;17.226;2024-03-07T09:32:46;102462.29;;;3.70;78.52
44872;BME280;30602;51.060;17.226;2024-03-07T09:36:47;102444.71;;;3.77;78.20
44872;BME280;30602;51.060;17.226;2024-03-07T09:40:57;102454.84;;;3.90;78.61
44872;BME280;30602;51.060;17.226;2024-03-07T09:44:25;102456.91;;;4.10;77.48
44872;BME280;30602;51.060;17.226;2024-03-07T09:48:10;102462.96;;;3.95;76.35
44872;BME280;30602;51.060;17.226;2024-03-07T09:52:06;102462.11;;;3.88;75.49
44872;BME280;30602;51.060;17.226;2024-03-07T09:55:50;102460.23;;;3.91;75.38
44872;BME280;30602;51.060;17.226;2024-03-07T09:59:59;102448.03;;;3.81;74.89
44872;BME280;30602;51.060;17.226;2024-03-07T10:03:43;102464.78;;;3.86;75.06
44872;BME280;30602;51.060;17.226;2024-03-07T10:08:00;102464.33;;;3.97;75.79
44872;BME280;30602;51.060;17.226;2024-03-07T10:16:45;102456.58;;;4.11;75.72
44872;BME280;30602;51.060;17.226;2024-03-07T10:21:01;102455.42;;;4.03;73.86
44872;BME280;30602;51.060;17.226;2024-03-07T10:25:16;102456.73;;;4.03;73.81
44872;BME280;30602;51.060;17.226;2024-03-07T10:28:39;102459.30;;;3.98;74.45
44872;BME280;30602;51.060;17.226;2024-03-07T10:32:23;102458.74;;;4.00;74.81
44872;BME280;30602;51.060;17.226;2024-03-07T10:37:16;102468.02;;;3.95;74.80
44872;BME280;30602;51.060;17.226;2024-03-07T10:40:48;102458.33;;;3.86;73.76
44872;BME280;30602;51.060;17.226;2024-03-07T10:44:37;102468.79;;;3.84;74.20
44872;BME280;30602;51.060;17.226;2024-03-07T10:48:59;102464.83;;;3.91;74.93
44872;BME280;30602;51.060;17.226;2024-03-07T11:05:50;102455.23;;;4.22;76.38
44872;BME280;30602;51.060;17.226;2024-03-07T11:09:34;102453.16;;;4.35;74.35
44872;BME280;30602;51.060;17.226;2024-03-07T11:13:14;102448.34;;;4.48;74.15
44872;BME280;30602;51.060;17.226;2024-03-07T11:16:59;102441.26;;;4.65;74.86
44872;BME280;30602;51.060;17.226;2024-03-07T11:28:57;102443.32;;;4.48;73.70
44872;BME280;30602;51.060;17.226;2024-03-07T11:32:41;102441.95;;;4.56;74.02
44872;BME280;30602;51.060;17.226;2024-03-07T11:36:44;102432.64;;;4.68;73.02
44872;BME280;30602;51.060;17.226;2024-03-07T11:43:55;102427.11;;;4.70;73.82
44872;BME280;30602;51.060;17.226;2024-03-07T11:47:40;102423.48;;;4.72;73.09
44872;BME280;30602;51.060;17.226;2024-03-07T11:52:23;102420.05;;;4.75;73.76
44872;BME280;30602;51.060;17.226;2024-03-07T11:56:18;102406.09;;;4.67;72.70
44872;BME280;30602;51.060;17.226;2024-03-07T12:00:18;102410.48;;;4.78;72.45
44872;BME280;30602;51.060;17.226;2024-03-07T12:03:57;102403.95;;;4.73;72.19
44872;BME280;30602;51.060;17.226;2024-03-07T12:07:45;102402.95;;;4.92;73.32
44872;BME280;30602;51.060;17.226;2024-03-07T12:11:42;102398.95;;;4.98;72.91
44872;BME280;30602;51.060;17.226;2024-03-07T12:15:27;102388.15;;;5.11;72.16
44872;BME280;30602;51.060;17.226;2024-03-07T12:18:59;102385.81;;;5.21;71.57
44872;BME280;30602;51.060;17.226;2024-03-07T12:22:29;102384.60;;;5.38;72.43
44872;BME280;30602;51.060;17.226;2024-03-07T12:26:03;102372.92;;;5.41;71.19
44872;BME280;30602;51.060;17.226;2024-03-07T12:29:48;102380.02;;;5.50;71.54
44872;BME280;30602;51.060;17.226;2024-03-07T12:33:35;102378.93;;;5.60;70.31
44872;BME280;30602;51.060;17.226;2024-03-07T12:38:10;102374.33;;;5.54;69.89
44872;BME280;30602;51.060;17.226;2024-03-07T12:41:59;102380.10;;;5.57;71.22
44872;BME280;30602;51.060;17.226;2024-03-07T12:45:29;102381.67;;;5.39;70.76
44872;BME280;30602;51.060;17.226;2024-03-07T12:49:55;102384.97;;;5.27;71.35
44872;BME280;30602;51.060;17.226;2024-03-07T12:53:24;102387.80;;;5.26;70.87
44872;BME280;30602;51.060;17.226;2024-03-07T12:56:59;102383.73;;;5.26;71.61
44872;BME280;30602;51.060;17.226;2024-03-07T13:01:05;102388.58;;;5.20;71.40
44872;BME280;30602;51.060;17.226;2024-03-07T13:05:02;102386.11;;;5.26;72.28
44872;BME280;30602;51.060;17.226;2024-03-07T13:09:31;102390.16;;;5.21;71.55
44872;BME280;30602;51.060;17.226;2024-03-07T13:13:04;102387.63;;;5.22;71.86
44872;BME280;30602;51.060;17.226;2024-03-07T13:16:34;102391.60;;;5.21;71.56
44872;BME280;30602;51.060;17.226;2024-03-07T13:20:51;102389.63;;;5.16;72.11
44872;BME280;30602;51.060;17.226;2024-03-07T13:24:29;102389.44;;;5.09;71.13
44872;BME280;30602;51.060;17.226;2024-03-07T13:28:50;102387.54;;;5.11;72.40
44872;BME280;30602;51.060;17.226;2024-03-07T13:32:32;102388.87;;;5.10;72.47
44872;BME280;30602;51.060;17.226;2024-03-07T13:36:26;102391.30;;;5.12;72.39
44872;BME280;30602;51.060;17.226;2024-03-07T13:40:31;102391.68;;;5.15;72.03
44872;BME280;30602;51.060;17.226;2024-03-07T13:44:19;102384.83;;;5.25;72.09
44872;BME280;30602;51.060;17.226;2024-03-07T13:48:18;102381.02;;;5.24;71.67
44872;BME280;30602;51.060;17.226;2024-03-07T13:51:45;102376.38;;;5.32;72.04
44872;BME280;30602;51.060;17.226;2024-03-07T14:00:36;102375.67;;;5.32;71.72
44872;BME280;30602;51.060;17.226;2024-03-07T14:31:33;102367.52;;;5.36;72.13
44872;BME280;30602;51.060;17.226;2024-03-07T14:43:51;102370.66;;;5.38;71.13
44872;BME280;30602;51.060;17.226;2024-03-07T14:47:14;102369.20;;;5.30;70.89
44872;BME280;30602;51.060;17.226;2024-03-07T14:51:00;102369.31;;;5.17;70.72
44872;BME280;30602;51.060;17.226;2024-03-07T14:54:35;102368.98;;;5.17;71.62
44872;BME280;30602;51.060;17.226;2024-03-07T14:58:23;102370.05;;;5.18;72.99
44872;BME280;30602;51.060;17.226;2024-03-07T15:02:12;102369.50;;;5.15;73.29
44872;BME280;30602;51.060;17.226;2024-03-07T15:06:38;102367.65;;;5.07;72.37
44872;BME280;30602;51.060;17.226;2024-03-07T15:10:43;102360.77;;;5.06;72.73
44872;BME280;30602;51.060;17.226;2024-03-07T15:14:08;102359.13;;;5.01;72.05
44872;BME280;30602;51.060;17.226;2024-03-07T15:17:46;102358.48;;;4.98;72.20
44872;BME280;30602;51.060;17.226;2024-03-07T15:22:09;102355.14;;;4.97;73.16
44872;BME280;30602;51.060;17.226;2024-03-07T15:25:29;102351.81;;;4.98;73.67
44872;BME280;30602;51.060;17.226;2024-03-07T15:29:08;102353.79;;;5.05;73.66
44872;BME280;30602;51.060;17.226;2024-03-07T15:33:00;102352.42;;;5.12;74.31
44872;BME280;30602;51.060;17.226;2024-03-07T15:36:39;102351.65;;;5.12;74.64
44872;BME280;30602;51.060;17.226;2024-03-07T15:40:34;102351.80;;;5.03;75.05
44872;BME280;30602;51.060;17.226;2024-03-07T15:44:52;102352.02;;;4.94;74.41
44872;BME280;30602;51.060;17.226;2024-03-07T15:49:00;102356.23;;;4.84;73.83
44872;BME280;30602;51.060;17.226;2024-03-07T15:52:51;102354.09;;;4.73;74.57
44872;BME280;30602;51.060;17.226;2024-03-07T15:56:48;102357.21;;;4.68;74.64
44872;BME280;30602;51.060;17.226;2024-03-07T16:00:41;102354.67;;;4.64;74.92
44872;BME280;30602;51.060;17.226;2024-03-07T16:04:29;102358.37;;;4.62;76.13
44872;BME280;30602;51.060;17.226;2024-03-07T16:08:19;102358.67;;;4.60;76.95
44872;BME280;30602;51.060;17.226;2024-03-07T16:12:58;102360.30;;;4.55;77.64
44872;BME280;30602;51.060;17.226;2024-03-07T16:17:12;102360.34;;;4.55;78.36
44872;BME280;30602;51.060;17.226;2024-03-07T16:21:14;102362.77;;;4.54;78.19
44872;BME280;30602;51.060;17.226;2024-03-07T16:24:53;102358.92;;;4.60;78.45
44872;BME280;30602;51.060;17.226;2024-03-07T16:28:45;102359.74;;;4.55;78.46
44872;BME280;30602;51.060;17.226;2024-03-07T16:32:34;102269.53;;;3.95;78.47
44872;BME280;30602;51.060;17.226;2024-03-07T16:36:23;102363.54;;;4.52;78.96
44872;BME280;30602;51.060;17.226;2024-03-07T16:40:53;102366.92;;;4.49;79.51
44872;BME280;30602;51.060;17.226;2024-03-07T16:44:17;102369.55;;;4.44;78.96
44872;BME280;30602;51.060;17.226;2024-03-07T16:48:04;102366.03;;;4.40;79.21
44872;BME280;30602;51.060;17.226;2024-03-07T16:51:53;102369.52;;;4.38;79.93
44872;BME280;30602;51.060;17.226;2024-03-07T16:56:14;102371.03;;;4.35;79.92
44872;BME280;30602;51.060;17.226;2024-03-07T16:59:57;102372.21;;;4.35;80.39
44872;BME280;30602;51.060;17.226;2024-03-07T17:04:13;102374.03;;;4.32;80.20
44872;BME280;30602;51.060;17.226;2024-03-07T17:07:59;102378.03;;;4.32;79.97
44872;BME280;30602;51.060;17.226;2024-03-07T17:11:42;102375.25;;;4.39;79.72
44872;BME280;30602;51.060;17.226;2024-03-07T17:20:08;102383.25;;;4.38;80.12
44872;BME280;30602;51.060;17.226;2024-03-07T17:23:51;102386.76;;;4.35;80.28
44872;BME280;30602;51.060;17.226;2024-03-07T17:27:31;102389.31;;;4.31;80.57
44872;BME280;30602;51.060;17.226;2024-03-07T17:31:14;102385.39;;;4.27;81.57
44872;BME280;30602;51.060;17.226;2024-03-07T17:35:22;102391.59;;;4.24;81.64
44872;BME280;30602;51.060;17.226;2024-03-07T17:39:01;102391.95;;;4.22;81.73
44872;BME280;30602;51.060;17.226;2024-03-07T17:42:34;102392.95;;;4.22;82.53
44872;BME280;30602;51.060;17.226;2024-03-07T17:46:03;102394.47;;;4.19;82.66
44872;BME280;30602;51.060;17.226;2024-03-07T17:49:51;102378.26;;;4.07;83.27
44872;BME280;30602;51.060;17.226;2024-03-07T17:53:25;102392.12;;;4.12;83.72
44872;BME280;30602;51.060;17.226;2024-03-07T17:56:54;102392.45;;;4.15;83.63
44872;BME280;30602;51.060;17.226;2024-03-07T18:00:26;102390.52;;;4.17;83.76
44872;BME280;30602;51.060;17.226;2024-03-07T18:03:55;102387.41;;;4.19;83.85
44872;BME280;30602;51.060;17.226;2024-03-07T18:07:27;102389.49;;;4.16;83.96
44872;BME280;30602;51.060;17.226;2024-03-07T18:11:04;102390.47;;;4.13;84.05
44872;BME280;30602;51.060;17.226;2024-03-07T18:15:42;102390.55;;;4.07;84.12
44872;BME280;30602;51.060;17.226;2024-03-07T18:19:32;102384.48;;;4.04;84.36
44872;BME280;30602;51.060;17.226;2024-03-07T18:24:07;102392.40;;;4.02;84.56
44872;BME280;30602;51.060;17.226;2024-03-07T18:27:53;102394.64;;;4.01;84.60
44872;BME280;30602;51.060;17.226;2024-03-07T18:31:19;102394.39;;;3.95;84.79
44872;BME280;30602;51.060;17.226;2024-03-07T18:35:39;102394.53;;;3.89;85.03
44872;BME280;30602;51.060;17.226;2024-03-07T18:39:04;102395.95;;;3.92;85.31
44872;BME280;30602;51.060;17.226;2024-03-07T18:43:04;102398.51;;;3.89;84.95
44872;BME280;30602;51.060;17.226;2024-03-07T18:46:47;102388.81;;;3.88;85.05
44872;BME280;30602;51.060;17.226;2024-03-07T18:50:34;102396.92;;;3.98;84.86
44872;BME280;30602;51.060;17.226;2024-03-07T18:54:35;102392.66;;;4.07;85.17
44872;BME280;30602;51.060;17.226;2024-03-07T18:58:12;102391.94;;;4.05;85.32
44872;BME280;30602;51.060;17.226;2024-03-07T19:01:46;102394.65;;;3.96;85.06
44872;BME280;30602;51.060;17.226;2024-03-07T19:05:09;102396.84;;;3.93;85.41
44872;BME280;30602;51.060;17.226;2024-03-07T19:09:11;102394.95;;;3.88;85.89
44872;BME280;30602;51.060;17.226;2024-03-07T19:13:09;102396.16;;;3.85;85.67
44872;BME280;30602;51.060;17.226;2024-03-07T19:17:28;102394.81;;;3.86;85.88
44872;BME280;30602;51.060;17.226;2024-03-07T19:20:53;102397.84;;;3.85;85.61
44872;BME280;30602;51.060;17.226;2024-03-07T19:24:47;102397.55;;;3.84;86.10
44872;BME280;30602;51.060;17.226;2024-03-07T19:28:44;102395.28;;;3.80;85.91
44872;BME280;30602;51.060;17.226;2024-03-07T19:32:22;102396.67;;;3.78;85.97
44872;BME280;30602;51.060;17.226;2024-03-07T19:35:51;102398.88;;;3.76;86.01
44872;BME280;30602;51.060;17.226;2024-03-07T19:40:14;102391.70;;;3.78;86.28
44872;BME280;30602;51.060;17.226;2024-03-07T19:43:52;102390.10;;;3.85;86.06
44872;BME280;30602;51.060;17.226;2024-03-07T19:47:19;102387.81;;;3.88;86.51
44872;BME280;30602;51.060;17.226;2024-03-07T19:51:08;102385.50;;;3.83;86.15
44872;BME280;30602;51.060;17.226;2024-03-07T19:54:39;102382.35;;;3.80;86.60
44872;BME280;30602;51.060;17.226;2024-03-07T19:58:20;102382.80;;;3.78;86.63
44872;BME280;30602;51.060;17.226;2024-03-07T20:01:57;102381.99;;;3.75;86.74
44872;BME280;30602;51.060;17.226;2024-03-07T20:05:25;102379.82;;;3.70;86.23
44872;BME280;30602;51.060;17.226;2024-03-07T20:09:09;102383.01;;;3.69;86.70
44872;BME280;30602;51.060;17.226;2024-03-07T20:12:44;102385.44;;;3.69;86.40
44872;BME280;30602;51.060;17.226;2024-03-07T20:16:38;102386.77;;;3.71;86.68
44872;BME280;30602;51.060;17.226;2024-03-07T20:20:03;102385.41;;;3.72;86.95
44872;BME280;30602;51.060;17.226;2024-03-07T20:23:57;102382.59;;;3.84;87.21
44872;BME280;30602;51.060;17.226;2024-03-07T20:27:54;102382.19;;;3.81;86.52
44872;BME280;30602;51.060;17.226;2024-03-07T20:32:33;102380.72;;;3.78;85.50
44872;BME280;30602;51.060;17.226;2024-03-07T20:36:02;102377.34;;;3.83;85.27
44872;BME280;30602;51.060;17.226;2024-03-07T20:39:45;102379.42;;;3.84;84.36
44872;BME280;30602;51.060;17.226;2024-03-07T20:43:36;102375.28;;;3.84;84.33
44872;BME280;30602;51.060;17.226;2024-03-07T20:47:09;102378.81;;;3.78;84.32
44872;BME280;30602;51.060;17.226;2024-03-07T20:50:57;102378.21;;;3.67;84.34
44872;BME280;30602;51.060;17.226;2024-03-07T20:54:58;102358.10;;;3.50;84.50
44872;BME280;30602;51.060;17.226;2024-03-07T20:59:34;102382.13;;;3.60;84.56
44872;BME280;30602;51.060;17.226;2024-03-07T21:03:20;102379.17;;;3.55;84.67
44872;BME280;30602;51.060;17.226;2024-03-07T21:11:01;102377.98;;;3.40;85.32
44872;BME280;30602;51.060;17.226;2024-03-07T21:14:42;102356.97;;;3.22;85.95
44872;BME280;30602;51.060;17.226;2024-03-07T21:18:50;102367.98;;;3.20;86.12
44872;BME280;30602;51.060;17.226;2024-03-07T21:22:44;102369.58;;;3.16;86.57
44872;BME280;30602;51.060;17.226;2024-03-07T21:27:23;102366.99;;;3.11;86.90
44872;BME280;30602;51.060;17.226;2024-03-07T21:31:43;102369.89;;;3.06;87.03
44872;BME280;30602;51.060;17.226;2024-03-07T21:35:31;102371.02;;;2.96;86.85
44872;BME280;30602;51.060;17.226;2024-03-07T21:38:57;102369.27;;;2.87;87.60
44872;BME280;30602;51.060;17.226;2024-03-07T21:42:26;102367.30;;;2.75;87.93
44872;BME280;30602;51.060;17.226;2024-03-07T21:46:26;102371.40;;;2.59;89.04
44872;BME280;30602;51.060;17.226;2024-03-07T21:50:08;102371.54;;;2.39;90.24